Alpine, TX (79832)

12:02 PM CST on March 04, 2015 (GMT -0600)
MesoWest ALPINJ TX US UPR | Change Station
CLOSE
Current Station
Personal Weather Station
Location: Alpine, TX
Elevation: 4885 ft
Nearby Weather Stations

Elev 4885 ft 30.32 °N, 103.79 °W | Updated 1 hour ago

Scattered Clouds
Scattered Clouds
49 °F
Feels Like 49 °F
N
Wind Variable Wind from North
Gusts 0.0 mph

Today
High -- | Low -- °F
--% Chance of Precip.
Yesterday
High -- | Low -- °F
Precip. -- in
7:17 AM 6:55 PM
Waxing Gibbous, 99% visible
Pressure 30.00 in
Visibility 10.0 miles
Clouds Scattered Clouds 1800 ft
Scattered Clouds 7500 ft
Windchill 49 °F
Dew Point Not available.
Humidity Not available.
Rainfall -999.00 in
Snow Depth Not available.
UV 6 out of 12
Pollen 4.80 out of 12
Air Quality Not available.
Flu Activity Not available.
METAR KE38 041755Z AUTO 09005KT 10SM SCT018 SCT075 14/07 A3000 RMK AO2 T01360073 10136 20056

More Conditions Fewer Conditions

Pressure 30.00 in
Visibility 10.0 miles
Clouds Scattered Clouds 1800 ft
Scattered Clouds 7500 ft
Windchill 49 °F
Dew Point Not available.
Humidity Not available.
Rainfall -999.00 in
Snow Depth Not available.
UV 6 out of 12
Pollen 4.80 out of 12
Air Quality Not available.
Flu Activity Not available.
METAR KE38 041755Z AUTO 09005KT 10SM SCT018 SCT075 14/07 A3000 RMK AO2 T01360073 10136 20056

More Conditions Fewer Conditions

10-Day Weather Forecast

Almanac

Astronomy

Mar. 04, 2015 Rise Set
Actual Time
Civil Twilight
Nautical Twilight
Astronomical Twilight
Moon
Length of Visible Light
Length of Day
Tomorrow will be .
, % of the Moon is Illuminated

Today's Extremes

State Highs State Lows

Community

WunderPhotos

Upload Photos

1,802,523 photos uploaded!

WunderBlogs® & News

Nearby

Air Quality

  Air Quality AQ Index Pollutant
Not available.

Snow Depth

Station Depth Elevation

Earthquake Activity

City Distance Mag. Time & Date
Minimum magnitude displayed is 2.5.

Coastal Water Temperatures

Place Temperature

Nearby Weather Stations